Time;durP1;ratioP1;P1;durP2;ratioP2;P2;SDS_P1;SDS_P2;PMS_P1;PMS_P2;Temp;Humidity;BMP_temperature;BMP_pressure;BME280_temperature;BME280_humidity;BME280_pressure;Samples;Min_cycle;Max_cycle;Signal;HPM_P1;HPM_P2
2021/06/14 00:00:10;;;;;;;7.43;5.85;;;;;;;9.04;96.22;101796.69;4986788;28;20042;-79
2021/06/14 00:02:38;;;;;;;9.57;5.80;;;;;;;9.05;95.84;101806.34;4976405;28;20160;-80
2021/06/14 00:05:06;;;;;;;11.45;6.07;;;;;;;8.89;96.80;101789.59;4990176;28;20283;-79
2021/06/14 00:07:32;;;;;;;9.27;5.28;;;;;;;8.91;96.72;101790.50;4990742;28;20132;-80
2021/06/14 00:09:59;;;;;;;11.73;6.68;;;;;;;8.88;96.70;101787.84;4992334;28;20037;-80
2021/06/14 00:12:26;;;;;;;9.55;6.22;;;;;;;8.83;96.89;101789.59;4991699;28;20372;-79
2021/06/14 00:14:53;;;;;;;8.88;5.82;;;;;;;8.83;96.72;101801.84;4991149;28;20046;-80
2021/06/14 00:17:19;;;;;;;9.13;5.93;;;;;;;8.85;96.19;101794.88;5001455;28;20038;-79
2021/06/14 00:19:47;;;;;;;8.40;5.53;;;;;;;8.74;96.93;101787.78;4997838;28;20486;-79
2021/06/14 00:22:15;;;;;;;8.43;5.30;;;;;;;8.71;96.67;101789.50;4986684;28;20038;-80
2021/06/14 00:24:41;;;;;;;10.02;6.45;;;;;;;8.68;96.95;101793.03;5006102;28;20050;-80
2021/06/14 00:27:09;;;;;;;8.75;5.63;;;;;;;8.66;96.70;101791.22;4980616;28;20399;-80
2021/06/14 00:29:35;;;;;;;9.35;7.03;;;;;;;8.67;96.47;101793.03;4974276;28;20046;-79
2021/06/14 00:32:02;;;;;;;9.23;6.72;;;;;;;8.65;96.45;101790.34;4988952;28;20037;-80
2021/06/14 00:34:29;;;;;;;9.17;5.23;;;;;;;8.64;96.50;101785.06;5004782;28;20042;-79
2021/06/14 00:36:55;;;;;;;10.80;6.33;;;;;;;8.58;97.07;101787.69;5007363;28;20739;-79
2021/06/14 00:39:22;;;;;;;8.30;5.60;;;;;;;8.48;97.57;101778.84;4990665;28;20565;-80
2021/06/14 00:41:49;;;;;;;8.23;5.93;;;;;;;8.48;97.54;101778.84;5007295;28;20034;-79
2021/06/14 00:44:15;;;;;;;10.67;6.43;;;;;;;8.50;97.59;101773.59;5007773;28;20758;-79
2021/06/14 00:46:42;;;;;;;8.75;5.57;;;;;;;8.48;97.49;101777.97;4982040;28;20061;-79
2021/06/14 00:49:09;;;;;;;7.97;5.70;;;;;;;8.39;97.69;101784.94;4981766;28;20065;-81
2021/06/14 00:51:36;;;;;;;9.82;6.22;;;;;;;8.39;98.17;101779.66;4971164;28;20096;-80
2021/06/14 00:54:03;;;;;;;10.32;6.88;;;;;;;8.40;98.01;101770.00;4991740;28;20046;-80
2021/06/14 00:56:30;;;;;;;10.23;6.37;;;;;;;8.40;97.67;101784.06;5007251;28;20490;-80
2021/06/14 00:58:57;;;;;;;9.65;6.10;;;;;;;8.33;98.03;101776.97;4992005;28;20561;-80
2021/06/14 01:01:24;;;;;;;7.88;5.93;;;;;;;8.35;97.87;101772.63;4988085;28;20041;-80
2021/06/14 01:03:51;;;;;;;7.97;5.57;;;;;;;8.31;97.78;101776.06;4991380;28;20045;-79
2021/06/14 01:06:18;;;;;;;9.20;5.47;;;;;;;8.23;98.44;101775.13;5001237;28;20453;-80
2021/06/14 01:08:47;;;;;;;7.73;5.50;;;;;;;8.25;97.83;101767.28;5003732;28;20038;-79
2021/06/14 01:11:38;;;;;;;10.67;6.67;;;;;;;8.24;97.67;101755.88;4989900;28;20048;-80
2021/06/14 01:14:10;;;;;;;11.17;6.57;;;;;;;8.27;97.68;101776.06;4987342;28;20176;-79
2021/06/14 01:16:59;;;;;;;7.37;5.20;;;;;;;8.21;97.34;101770.72;4986659;28;20073;-79
2021/06/14 01:19:59;;;;;;;10.30;6.40;;;;;;;8.17;97.19;101769.84;4983522;28;20376;-80
2021/06/14 01:22:57;;;;;;;9.07;5.93;;;;;;;8.10;97.47;101765.41;4964401;28;20049;-80
2021/06/14 01:25:27;;;;;;;9.47;5.50;;;;;;;8.06;97.38;101771.50;5004963;28;20038;-79
2021/06/14 01:27:56;;;;;;;11.23;5.57;;;;;;;8.01;97.64;101768.84;4985386;28;20046;-79
2021/06/14 01:30:28;;;;;;;7.80;5.40;;;;;;;7.94;97.66;101760.88;4971566;28;20410;-80
2021/06/14 01:32:54;;;;;;;8.97;5.93;;;;;;;7.89;98.39;101769.59;5006570;28;20034;-80
2021/06/14 01:35:28;;;;;;;8.37;6.13;;;;;;;7.98;97.00;101762.66;4989928;28;20046;-81
2021/06/14 01:37:57;;;;;;;11.80;6.05;;;;;;;7.86;97.76;101766.97;4992746;28;20064;-79
2021/06/14 01:40:24;;;;;;;8.40;5.47;;;;;;;7.89;97.28;101763.47;4990094;28;20092;-80
2021/06/14 01:42:53;;;;;;;8.90;5.67;;;;;;;7.88;96.85;101752.06;4973164;28;20173;-80
2021/06/14 01:45:22;;;;;;;10.93;6.20;;;;;;;7.80;97.40;101761.66;4985281;28;20042;-80
2021/06/14 01:47:50;;;;;;;8.77;5.77;;;;;;;7.75;97.25;101763.38;4989695;28;20080;-79
2021/06/14 01:50:17;;;;;;;8.83;6.30;;;;;;;7.72;97.56;101765.06;4989278;28;20630;-79
2021/06/14 01:52:44;;;;;;;10.70;6.10;;;;;;;7.76;97.41;101751.97;5006889;28;20040;-79
2021/06/14 01:55:13;;;;;;;9.50;5.90;;;;;;;7.70;97.63;101757.19;4989885;28;20096;-79
2021/06/14 01:57:40;;;;;;;9.90;6.43;;;;;;;7.69;97.70;101749.28;4973078;28;20503;-79
2021/06/14 02:00:08;;;;;;;8.13;6.30;;;;;;;7.70;96.92;101754.53;4989021;28;20046;-80
2021/06/14 02:02:36;;;;;;;7.67;6.17;;;;;;;7.65;97.34;101747.47;5005816;28;20106;-80
2021/06/14 02:05:04;;;;;;;12.30;5.77;;;;;;;7.63;97.54;101750.09;5010819;28;20084;-80
2021/06/14 02:07:31;;;;;;;8.30;5.73;;;;;;;7.58;98.07;101752.69;4976435;28;20042;-80
2021/06/14 02:09:58;;;;;;;8.13;6.43;;;;;;;7.52;98.02;101747.38;4993741;28;20619;-80
2021/06/14 02:12:26;;;;;;;8.33;6.47;;;;;;;7.58;97.54;101744.81;4975937;28;20388;-80
2021/06/14 02:14:54;;;;;;;8.43;5.83;;;;;;;7.54;97.39;101742.13;4995499;28;20049;-80
2021/06/14 02:17:24;;;;;;;7.40;5.60;;;;;;;7.49;97.60;101744.72;4993972;28;20764;-80
2021/06/14 02:19:51;;;;;;;10.70;5.93;;;;;;;7.47;97.59;101743.81;4986207;28;20104;-79
2021/06/14 02:22:18;;;;;;;8.27;5.60;;;;;;;7.38;98.12;101748.97;5006165;28;20065;-79
2021/06/14 02:24:45;;;;;;;8.13;6.00;;;;;;;7.30;98.76;101740.13;4974324;28;20038;-79
2021/06/14 02:27:13;;;;;;;8.83;6.10;;;;;;;7.35;98.31;101746.34;4988487;28;21672;-79
2021/06/14 02:29:40;;;;;;;9.90;6.60;;;;;;;7.33;98.54;101741.06;5010963;28;20064;-79
2021/06/14 02:32:08;;;;;;;9.27;5.93;;;;;;;7.33;98.16;101738.44;5010406;28;20046;-80
2021/06/14 02:34:36;;;;;;;9.57;7.00;;;;;;;7.27;98.47;101740.13;5007802;28;20037;-79
2021/06/14 02:37:04;;;;;;;10.93;6.03;;;;;;;7.27;98.13;101732.22;5008415;28;20042;-78
2021/06/14 02:39:32;;;;;;;8.63;6.07;;;;;;;7.25;98.61;101731.34;4994394;28;20427;-79
2021/06/14 02:42:00;;;;;;;10.20;6.07;;;;;;;7.23;98.39;101739.22;4992831;28;20591;-79
2021/06/14 02:44:27;;;;;;;7.63;6.00;;;;;;;7.21;98.33;101740.91;4994515;28;20053;-80
2021/06/14 02:46:55;;;;;;;9.47;5.57;;;;;;;7.26;98.21;101731.34;5011162;28;20053;-80
2021/06/14 02:49:23;;;;;;;10.80;6.30;;;;;;;7.18;99.00;101729.50;5010473;28;20054;-79
2021/06/14 02:51:51;;;;;;;8.37;5.83;;;;;;;7.14;99.57;101722.44;5003437;28;20089;-80
2021/06/14 02:54:21;;;;;;;7.90;5.83;;;;;;;7.19;98.81;101716.38;4993276;28;20042;-79
2021/06/14 02:56:49;;;;;;;7.80;6.23;;;;;;;7.17;99.12;101717.25;4992935;28;20099;-79
2021/06/14 02:59:17;;;;;;;7.90;5.70;;;;;;;7.22;98.65;101711.13;4977120;28;20052;-79
2021/06/14 03:01:45;;;;;;;9.97;6.50;;;;;;;7.26;98.65;101706.81;4993456;28;20045;-79
2021/06/14 03:04:13;;;;;;;10.37;6.73;;;;;;;7.18;99.36;101713.75;4992715;28;20483;-79
2021/06/14 03:06:41;;;;;;;11.53;6.03;;;;;;;7.12;99.90;101719.81;4990655;28;20046;-79
2021/06/14 03:09:08;;;;;;;7.83;5.83;;;;;;;7.10;100.00;101716.28;4993578;28;20104;-79
2021/06/14 03:11:39;;;;;;;8.67;5.50;;;;;;;7.18;100.00;101708.47;4976126;28;20042;-79
2021/06/14 03:14:06;;;;;;;7.47;6.07;;;;;;;7.25;99.54;101715.56;4991157;28;20042;-79
2021/06/14 03:16:33;;;;;;;9.47;6.00;;;;;;;7.26;99.36;101712.06;5007920;28;20038;-79
2021/06/14 03:19:02;;;;;;;10.97;6.53;;;;;;;7.23;100.00;101718.19;5009465;28;20129;-79
2021/06/14 03:21:31;;;;;;;10.00;5.67;;;;;;;7.33;99.29;101699.00;4986230;28;20162;-79
2021/06/14 03:23:57;;;;;;;9.63;6.07;;;;;;;7.27;99.31;101706.81;4993964;28;20037;-80
2021/06/14 03:26:32;;;;;;;8.80;5.87;;;;;;;7.21;99.97;101701.50;4974789;28;20064;-80
2021/06/14 03:29:00;;;;;;;9.60;6.20;;;;;;;7.25;99.59;101699.81;4977318;28;20049;-80
2021/06/14 03:31:30;;;;;;;8.23;6.10;;;;;;;7.22;100.00;101700.63;4992806;28;20692;-79
2021/06/14 03:33:57;;;;;;;10.43;6.50;;;;;;;7.25;100.00;101705.94;4992924;28;20084;-80
2021/06/14 03:36:29;;;;;;;10.43;6.77;;;;;;;7.25;100.00;101702.44;4975985;28;20084;-79
2021/06/14 03:38:57;;;;;;;9.47;6.03;;;;;;;7.27;100.00;101704.19;4989362;28;20053;-80
2021/06/14 03:41:24;;;;;;;8.47;6.07;;;;;;;7.32;100.00;101701.63;5005613;28;20049;-79
2021/06/14 03:43:51;;;;;;;8.30;6.03;;;;;;;7.36;100.00;101703.41;4977899;28;20038;-81
2021/06/14 03:46:18;;;;;;;7.90;5.97;;;;;;;7.40;100.00;101699.03;4993073;28;20041;-80
2021/06/14 03:48:45;;;;;;;8.70;6.40;;;;;;;7.40;100.00;101699.03;4983840;28;20050;-80
2021/06/14 03:51:12;;;;;;;10.67;6.27;;;;;;;7.41;100.00;101706.09;4991283;28;20042;-80
2021/06/14 03:53:39;;;;;;;9.60;5.80;;;;;;;7.43;100.00;101696.47;4975513;28;20696;-79
2021/06/14 03:56:10;;;;;;;8.63;6.03;;;;;;;7.49;100.00;101709.66;4987604;28;20097;-80
2021/06/14 03:58:37;;;;;;;8.67;5.63;;;;;;;7.54;99.98;101713.19;4994189;28;20038;-79
2021/06/14 04:01:04;;;;;;;8.50;6.10;;;;;;;7.52;100.00;101704.41;4987870;28;20498;-79
2021/06/14 04:03:31;;;;;;;8.40;5.77;;;;;;;7.58;100.00;101696.59;4971922;28;20060;-80
2021/06/14 04:06:01;;;;;;;9.13;6.43;;;;;;;7.58;99.95;101704.47;5005248;28;20034;-79
2021/06/14 04:08:28;;;;;;;10.17;6.10;;;;;;;7.53;100.00;101693.91;4974315;28;20061;-80
2021/06/14 04:10:55;;;;;;;8.03;5.07;;;;;;;7.53;100.00;101688.66;4984823;28;20407;-80
2021/06/14 04:13:22;;;;;;;7.97;5.80;;;;;;;7.58;100.00;101694.84;4986106;28;20037;-81
2021/06/14 04:15:48;;;;;;;8.13;6.00;;;;;;;7.58;100.00;101696.59;4992255;28;20045;-80
2021/06/14 04:18:15;;;;;;;9.13;6.53;;;;;;;7.58;100.00;101692.22;4991869;28;20534;-79
2021/06/14 04:20:41;;;;;;;7.90;6.43;;;;;;;7.66;100.00;101701.94;4974239;28;20052;-81
2021/06/14 04:23:08;;;;;;;8.33;5.50;;;;;;;7.73;100.00;101701.94;5000165;28;20045;-81
2021/06/14 04:25:35;;;;;;;9.83;6.43;;;;;;;7.78;100.00;101691.47;4988970;28;20050;-79
2021/06/14 04:28:03;;;;;;;10.33;6.37;;;;;;;7.83;100.00;101697.66;5009708;28;20038;-78
2021/06/14 04:30:29;;;;;;;8.50;5.93;;;;;;;7.81;100.00;101697.63;4983041;28;20050;-78
2021/06/14 04:32:56;;;;;;;10.47;5.97;;;;;;;7.82;100.00;101698.53;4978158;28;20080;-81
2021/06/14 04:35:23;;;;;;;9.63;5.83;;;;;;;7.82;100.00;101693.28;4988296;28;20093;-79
2021/06/14 04:37:50;;;;;;;10.73;6.20;;;;;;;7.89;100.00;101684.53;4992881;28;20041;-78
2021/06/14 04:40:17;;;;;;;6.93;5.40;;;;;;;8.01;100.00;101691.66;4994175;28;20054;-79
2021/06/14 04:42:44;;;;;;;6.97;5.83;;;;;;;8.08;100.00;101683.81;4995512;28;20038;-79
2021/06/14 04:45:13;;;;;;;8.33;6.30;;;;;;;8.15;100.00;101682.06;4996691;28;20038;-79
2021/06/14 04:47:40;;;;;;;9.47;6.23;;;;;;;8.23;100.00;101687.38;4987324;28;20124;-78
2021/06/14 04:50:08;;;;;;;11.02;7.32;;;;;;;8.27;100.00;101686.53;5011921;28;20049;-80
2021/06/14 04:52:34;;;;;;;8.77;5.67;;;;;;;8.29;100.00;101688.28;5010321;28;20077;-79
2021/06/14 04:55:01;;;;;;;10.27;6.10;;;;;;;8.31;100.00;101691.81;5008557;28;20029;-81
2021/06/14 04:57:28;;;;;;;7.97;5.63;;;;;;;8.40;100.00;101693.66;4977647;28;20052;-78
2021/06/14 04:59:54;;;;;;;7.68;5.35;;;;;;;8.49;100.00;101682.28;4994536;28;20038;-76
2021/06/14 05:02:21;;;;;;;8.60;6.07;;;;;;;8.59;100.00;101690.25;4978137;28;20423;-79
2021/06/14 05:04:48;;;;;;;8.13;5.68;;;;;;;8.73;100.00;101692.91;4993076;28;20535;-79
2021/06/14 05:07:15;;;;;;;8.32;5.72;;;;;;;8.80;100.00;101699.09;4992714;28;20042;-77
2021/06/14 05:09:42;;;;;;;8.73;6.32;;;;;;;8.81;100.00;101696.44;4993265;28;20673;-79
2021/06/14 05:12:09;;;;;;;10.90;6.50;;;;;;;8.89;100.00;101694.72;4992482;28;20049;-78
2021/06/14 05:14:36;;;;;;;8.88;5.60;;;;;;;9.24;100.00;101696.56;5004483;28;21104;-80
2021/06/14 05:17:03;;;;;;;6.53;5.15;;;;;;;10.22;100.00;101691.25;5008450;28;20049;-79
2021/06/14 05:19:30;;;;;;;6.75;4.82;;;;;;;11.22;95.14;101692.59;4975474;28;20085;-80
2021/06/14 05:22:01;;;;;;;9.55;4.80;;;;;;;11.52;92.29;101688.84;5006294;28;20438;-79
2021/06/14 05:24:28;;;;;;;6.97;4.68;;;;;;;11.81;91.19;101697.44;5004677;28;20073;-80
2021/06/14 05:26:54;;;;;;;5.30;3.88;;;;;;;11.91;90.61;101692.94;5007552;28;20577;-80
2021/06/14 05:29:21;;;;;;;7.90;4.63;;;;;;;11.75;92.26;101700.09;4974798;28;20046;-78
2021/06/14 05:31:48;;;;;;;6.53;4.00;;;;;;;11.61;93.40;101698.47;4990441;28;20519;-80
2021/06/14 05:34:15;;;;;;;8.50;5.70;;;;;;;11.46;96.18;101697.69;4989508;28;20035;-82
2021/06/14 05:36:42;;;;;;;10.25;6.40;;;;;;;11.41;100.00;101688.03;4970288;28;20048;-80
2021/06/14 05:39:09;;;;;;;8.60;6.53;;;;;;;11.50;99.52;101691.47;4973279;28;20304;-81
2021/06/14 05:41:35;;;;;;;8.07;5.43;;;;;;;11.94;99.31;101690.28;4968882;28;20616;-79
2021/06/14 05:44:02;;;;;;;8.60;4.95;;;;;;;13.04;96.46;101690.72;4990877;28;20433;-79
2021/06/14 05:46:29;;;;;;;5.00;3.85;;;;;;;15.52;84.35;101682.41;5006741;28;20041;-79
2021/06/14 05:48:56;;;;;;;5.55;3.75;;;;;;;17.92;72.28;101686.94;4984940;28;20034;-80
2021/06/14 05:51:23;;;;;;;5.45;4.38;;;;;;;19.87;62.79;101685.69;5000008;28;20109;-83
2021/06/14 05:53:49;;;;;;;6.45;3.05;;;;;;;21.52;57.63;101683.44;4972187;28;20533;-80
2021/06/14 05:56:16;;;;;;;5.70;3.40;;;;;;;22.92;51.74;101680.56;4990043;28;20050;-81
2021/06/14 05:58:43;;;;;;;5.85;3.95;;;;;;;23.92;49.50;101690.03;4969001;28;20038;-83
2021/06/14 06:01:10;;;;;;;6.75;4.22;;;;;;;24.51;46.20;101690.94;5001003;28;20084;-83
2021/06/14 06:03:39;;;;;;;5.75;3.58;;;;;;;24.37;46.86;101697.19;4988842;28;20259;-83
2021/06/14 06:06:06;;;;;;;6.82;4.20;;;;;;;23.91;48.25;101695.53;4988627;28;20042;-81
2021/06/14 06:08:33;;;;;;;7.47;4.03;;;;;;;23.19;46.77;101700.56;4999209;28;20039;-81
2021/06/14 06:11:02;;;;;;;6.63;3.97;;;;;;;22.62;51.37;101699.28;4989072;28;20088;-83
2021/06/14 06:13:28;;;;;;;6.85;4.05;;;;;;;22.08;52.14;101698.53;4971394;28;20038;-80
2021/06/14 06:15:55;;;;;;;8.45;4.80;;;;;;;21.29;51.83;101709.66;4989923;28;20092;-81
2021/06/14 06:18:23;;;;;;;6.00;3.97;;;;;;;21.19;55.17;101705.63;4972155;28;20048;-81
2021/06/14 06:20:49;;;;;;;6.47;3.83;;;;;;;20.99;55.97;101709.25;4985510;28;20050;-84
2021/06/14 06:23:16;;;;;;;6.68;4.43;;;;;;;20.70;56.91;101702.56;4984945;28;20050;-84
2021/06/14 06:25:43;;;;;;;6.20;3.60;;;;;;;20.58;56.61;101699.56;4973171;28;20100;-84
2021/06/14 06:28:10;;;;;;;9.23;4.38;;;;;;;20.63;58.44;101702.91;4992846;28;20467;-83
2021/06/14 06:30:37;;;;;;;5.30;3.45;;;;;;;20.64;58.48;101697.47;4984346;28;20046;-85
2021/06/14 06:33:05;;;;;;;6.78;3.47;;;;;;;20.70;56.70;101702.56;4980640;28;20766;-84
2021/06/14 06:35:32;;;;;;;6.03;4.38;;;;;;;20.69;57.26;101698.16;4962821;28;20054;-83
2021/06/14 06:37:59;;;;;;;8.25;4.22;;;;;;;20.76;57.25;101696.91;4971430;28;20046;-83
2021/06/14 06:40:27;;;;;;;5.93;3.60;;;;;;;20.76;56.08;101691.53;4970794;28;20045;-83
2021/06/14 06:42:56;;;;;;;6.13;3.40;;;;;;;20.65;54.77;101691.16;5103584;22;20069;-83
2021/06/14 06:45:25;;;;;;;3.72;2.90;;;;;;;20.63;55.55;101685.00;5028693;28;20041;-82
2021/06/14 06:47:52;;;;;;;8.50;3.53;;;;;;;20.78;55.07;101681.59;5029014;28;20068;-83
2021/06/14 06:50:19;;;;;;;5.30;3.70;;;;;;;20.83;55.88;101684.06;5014890;28;20037;-84
2021/06/14 06:52:46;;;;;;;9.98;3.63;;;;;;;20.58;53.78;101681.63;5034813;28;20417;-84
2021/06/14 06:55:15;;;;;;;6.22;4.18;;;;;;;20.86;56.94;101675.00;5034071;28;20044;-81
2021/06/14 06:57:42;;;;;;;6.57;3.55;;;;;;;21.05;54.65;101671.34;5015675;28;20045;-83
2021/06/14 07:00:12;;;;;;;6.55;3.25;;;;;;;21.19;53.25;101673.38;5035896;28;20045;-83
2021/06/14 07:02:39;;;;;;;4.30;3.00;;;;;;;21.25;53.05;101662.31;5006462;28;20130;-84
2021/06/14 07:05:26;;;;;;;6.72;3.50;;;;;;;21.32;53.60;101665.63;5014526;28;20037;-83
2021/06/14 07:07:52;;;;;;;6.93;3.47;;;;;;;21.20;51.88;101664.38;5017177;28;20095;-84
2021/06/14 07:10:19;;;;;;;5.50;3.30;;;;;;;21.28;53.20;101664.03;5021245;28;20040;-82
2021/06/14 07:12:55;;;;;;;4.82;2.90;;;;;;;21.44;51.69;101666.81;5020775;28;20139;-84
2021/06/14 07:15:22;;;;;;;3.80;2.83;;;;;;;21.63;52.80;101664.97;5031228;28;20107;-83
2021/06/14 07:17:49;;;;;;;4.75;2.70;;;;;;;21.69;52.08;101667.31;5015677;28;20033;-84
2021/06/14 07:20:16;;;;;;;4.53;2.63;;;;;;;21.69;52.09;101661.06;5032854;28;20041;-83
2021/06/14 07:22:42;;;;;;;5.28;3.55;;;;;;;21.42;48.83;101658.81;5030196;28;20561;-84
2021/06/14 07:25:10;;;;;;;5.32;3.05;;;;;;;21.63;51.34;101656.88;5101959;23;20283;-84
2021/06/14 07:27:37;;;;;;;4.70;3.25;;;;;;;21.58;50.47;101665.19;4984780;28;20073;-83
2021/06/14 07:30:19;;;;;;;5.38;3.20;;;;;;;21.77;51.39;101651.66;4977694;28;20039;-84
2021/06/14 07:32:46;;;;;;;6.50;3.42;;;;;;;21.79;49.48;101639.03;4991411;28;20038;-84
2021/06/14 07:35:13;;;;;;;5.53;2.80;;;;;;;22.03;51.01;101639.56;4971673;28;20058;-85
2021/06/14 07:37:40;;;;;;;6.80;3.00;;;;;;;22.16;49.57;101637.09;4992238;28;20038;-84
2021/06/14 07:40:08;;;;;;;7.05;3.22;;;;;;;21.90;49.31;101639.31;4975182;28;20050;-84
2021/06/14 07:42:35;;;;;;;5.68;3.08;;;;;;;21.78;49.54;101641.78;4985378;28;20065;-86
2021/06/14 07:45:03;;;;;;;5.50;3.00;;;;;;;22.04;48.12;101632.34;4974552;28;20125;-85
2021/06/14 07:47:30;;;;;;;6.03;2.70;;;;;;;21.97;47.70;101642.56;4974822;28;20619;-85
2021/06/14 07:49:56;;;;;;;6.35;3.30;;;;;;;21.90;48.09;101644.72;4975732;28;20054;-87
2021/06/14 07:52:23;;;;;;;5.80;3.10;;;;;;;21.99;49.10;101645.19;4975056;28;20050;-86
2021/06/14 07:54:52;;;;;;;5.90;3.25;;;;;;;21.52;50.57;101646.66;4961031;28;20038;-84
2021/06/14 07:57:19;;;;;;;6.10;3.55;;;;;;;21.79;51.69;101640.84;4979563;28;20803;-85
2021/06/14 07:59:47;;;;;;;7.35;3.95;;;;;;;21.90;50.35;101633.94;4976821;28;20411;-85
2021/06/14 08:02:13;;;;;;;5.63;3.17;;;;;;;22.26;51.13;101634.78;4962106;28;20054;-87
2021/06/14 08:04:40;;;;;;;7.95;4.22;;;;;;;22.43;50.02;101630.22;4991342;28;20376;-83
2021/06/14 08:07:07;;;;;;;6.63;3.28;;;;;;;22.71;52.08;101634.13;4987424;28;20550;-84
2021/06/14 08:09:34;;;;;;;5.05;3.75;;;;;;;22.76;49.55;101626.63;4973758;28;20057;-84
2021/06/14 08:12:05;;;;;;;4.88;3.25;;;;;;;22.68;48.32;101628.88;4952245;28;20069;-86
2021/06/14 08:14:32;;;;;;;4.07;3.60;;;;;;;22.60;47.95;101626.59;4982069;28;20076;-84
2021/06/14 08:17:01;;;;;;;5.65;3.45;;;;;;;22.69;49.12;101619.84;4967150;28;20080;-85
2021/06/14 08:19:41;;;;;;;5.65;3.05;;;;;;;22.78;48.95;101613.94;4990288;28;20106;-85
2021/06/14 08:25:11;;;;;;;5.00;3.55;;;;;;;22.70;48.57;101616.19;4994213;28;20562;-84
2021/06/14 08:27:44;;;;;;;6.78;3.53;;;;;;;23.04;46.17;101615.22;4987942;28;20443;-85
2021/06/14 08:30:14;;;;;;;5.35;3.28;;;;;;;23.11;45.99;101615.69;4963138;28;20130;-84
2021/06/14 08:32:41;;;;;;;4.10;3.25;;;;;;;23.10;47.37;101606.75;4972936;28;20047;-83
2021/06/14 08:35:13;;;;;;;7.57;3.40;;;;;;;23.25;46.28;101605.00;4973750;28;20065;-82
2021/06/14 08:37:42;;;;;;;4.60;2.88;;;;;;;23.26;46.54;101610.28;4988236;28;20035;-83
2021/06/14 08:40:15;;;;;;;6.10;3.35;;;;;;;23.29;46.50;101602.03;4970990;28;20053;-82
2021/06/14 08:42:42;;;;;;;6.13;2.92;;;;;;;23.35;45.46;101589.13;4991005;28;20050;-82
2021/06/14 08:45:10;;;;;;;5.60;3.28;;;;;;;23.33;45.17;101591.06;4971560;28;20042;-84
2021/06/14 08:47:39;;;;;;;5.65;3.17;;;;;;;23.02;42.95;101587.44;4970310;28;20050;-86
2021/06/14 08:50:09;;;;;;;4.93;2.60;;;;;;;23.21;45.11;101580.06;4987834;28;20034;-84
2021/06/14 08:52:36;;;;;;;5.03;2.60;;;;;;;23.52;45.70;101581.78;4977644;28;20062;-85
2021/06/14 08:55:05;;;;;;;5.70;3.75;;;;;;;23.41;43.41;101583.38;4969162;28;20562;-83
2021/06/14 08:57:32;;;;;;;5.22;2.72;;;;;;;23.64;44.81;101593.72;4985438;28;20137;-84
2021/06/14 08:59:59;;;;;;;4.38;2.58;;;;;;;23.73;42.01;101586.88;4976660;28;20054;-85
2021/06/14 09:02:26;;;;;;;4.57;2.72;;;;;;;23.71;41.51;101578.88;4959622;28;20046;-84
2021/06/14 09:04:53;;;;;;;6.43;2.85;;;;;;;23.98;42.66;101572.75;4961351;28;20049;-87
2021/06/14 09:07:26;;;;;;;4.40;3.13;;;;;;;23.20;42.76;101574.72;4982432;28;20393;-87
2021/06/14 09:09:55;;;;;;;5.25;2.67;;;;;;;23.60;42.74;101573.25;4995027;28;20073;-86
2021/06/14 09:12:22;;;;;;;4.43;2.58;;;;;;;23.71;45.07;101573.50;4961174;28;20438;-86
2021/06/14 09:14:49;;;;;;;4.72;3.28;;;;;;;23.79;41.92;101571.16;4967931;28;20043;-85
2021/06/14 09:17:17;;;;;;;5.35;2.78;;;;;;;23.76;41.86;101565.09;4983766;28;20034;-85
2021/06/14 09:19:53;;;;;;;3.63;2.60;;;;;;;24.07;43.26;101569.47;4973568;28;20471;-87
2021/06/14 09:22:23;;;;;;;4.55;2.63;;;;;;;24.03;42.14;101566.06;4957950;28;20145;-87
2021/06/14 09:25:05;;;;;;;5.60;2.63;;;;;;;24.09;42.57;101559.44;4976797;28;20046;-85
2021/06/14 09:27:39;;;;;;;4.53;2.65;;;;;;;23.59;41.50;101547.22;4975233;28;20046;-85
2021/06/14 09:30:16;;;;;;;3.08;2.50;;;;;;;24.04;41.79;101548.91;4990678;28;20046;-83
2021/06/14 09:32:54;;;;;;;4.82;2.80;;;;;;;24.14;41.00;101542.00;4976018;28;20326;-85
2021/06/14 09:35:22;;;;;;;3.50;2.95;;;;;;;24.41;42.29;101533.13;4970928;28;20062;-86
2021/06/14 09:38:03;;;;;;;7.10;3.38;;;;;;;24.33;41.41;101522.81;4967144;28;20112;-85
2021/06/14 09:40:43;;;;;;;6.05;3.38;;;;;;;24.17;42.52;101532.81;4970833;28;20053;-85
2021/06/14 09:43:27;;;;;;;7.57;3.60;;;;;;;24.35;43.74;101531.69;4969660;28;20045;-86
2021/06/14 09:45:54;;;;;;;4.80;3.58;;;;;;;24.48;43.57;101518.25;4990290;28;20064;-86
2021/06/14 09:48:25;;;;;;;6.50;3.65;;;;;;;24.73;42.63;101522.91;4969445;28;20133;-80
2021/06/14 09:50:53;;;;;;;3.42;2.78;;;;;;;24.85;41.46;101507.72;4984973;28;20101;-85
2021/06/14 09:53:22;;;;;;;3.78;2.80;;;;;;;25.02;42.63;101502.03;4986950;28;20042;-85
2021/06/14 09:55:50;;;;;;;3.08;2.50;;;;;;;24.50;40.75;101508.22;4968106;28;20042;-83
2021/06/14 09:58:18;;;;;;;3.83;2.78;;;;;;;24.85;41.70;101505.88;4987697;28;20502;-86
2021/06/14 10:01:04;;;;;;;5.40;3.17;;;;;;;25.07;41.24;101501.78;4966049;28;20050;-84
2021/06/14 10:03:47;;;;;;;5.40;3.15;;;;;;;24.58;42.59;101497.78;4978003;28;20106;-83
2021/06/14 10:06:15;;;;;;;5.07;3.75;;;;;;;24.82;42.28;101491.72;4985217;28;20045;-84
2021/06/14 10:08:47;;;;;;;6.88;3.63;;;;;;;25.01;42.78;101494.91;4969110;28;20108;-82
2021/06/14 10:11:18;;;;;;;4.78;2.88;;;;;;;24.85;38.73;101486.94;4962821;28;20089;-84
2021/06/14 10:13:47;;;;;;;6.32;2.97;;;;;;;25.03;40.70;101484.00;4989212;28;20137;-85
2021/06/14 10:16:24;;;;;;;3.45;2.60;;;;;;;25.29;42.18;101482.22;4948970;28;20043;-85
2021/06/14 10:18:52;;;;;;;4.50;3.08;;;;;;;25.31;40.00;101482.97;4954654;28;20046;-85
2021/06/14 10:21:24;;;;;;;5.88;2.80;;;;;;;25.39;40.71;101475.19;4982333;28;20085;-84
2021/06/14 10:23:52;;;;;;;4.60;3.25;;;;;;;25.45;40.29;101480.19;4979388;28;20045;-84
2021/06/14 10:26:20;;;;;;;7.15;2.97;;;;;;;25.10;41.96;101474.50;4990622;28;20034;-83
2021/06/14 10:28:47;;;;;;;3.83;2.65;;;;;;;25.30;40.19;101465.00;4971890;28;20043;-83
2021/06/14 10:31:18;;;;;;;3.25;2.17;;;;;;;25.38;39.48;101462.63;4974462;28;20104;-85
2021/06/14 10:33:51;;;;;;;4.15;2.50;;;;;;;25.56;39.97;101464.09;4978730;28;20136;-87
2021/06/14 10:36:22;;;;;;;4.40;2.67;;;;;;;25.69;40.18;101464.06;4991348;28;20443;-83
2021/06/14 10:38:50;;;;;;;3.42;2.55;;;;;;;25.71;39.15;101465.72;4976486;28;20120;-85
2021/06/14 10:41:18;;;;;;;4.43;2.55;;;;;;;25.55;37.28;101454.19;4949524;28;20104;-84
2021/06/14 10:43:47;;;;;;;3.75;2.90;;;;;;;25.52;39.73;101452.59;4956070;28;20088;-86
2021/06/14 10:46:15;;;;;;;6.22;3.30;;;;;;;25.58;39.83;101445.88;4976480;28;20041;-86
2021/06/14 10:48:43;;;;;;;3.65;2.47;;;;;;;25.78;39.28;101439.94;4975935;28;20046;-83
2021/06/14 10:51:15;;;;;;;3.80;2.70;;;;;;;25.99;39.95;101439.38;4974926;28;20049;-84
2021/06/14 10:53:43;;;;;;;3.38;2.90;;;;;;;26.10;38.69;101451.16;4970159;28;20043;-85
2021/06/14 10:56:13;;;;;;;3.95;2.70;;;;;;;26.07;38.50;101431.56;4972249;28;20042;-84
2021/06/14 10:58:43;;;;;;;4.30;2.75;;;;;;;25.85;39.61;101434.94;4960310;28;20043;-84
2021/06/14 11:01:15;;;;;;;3.00;2.63;;;;;;;26.00;39.65;101416.72;4988711;28;20042;-85
2021/06/14 11:03:45;;;;;;;3.78;2.47;;;;;;;26.13;39.09;101411.25;4992119;28;22321;-83
2021/06/14 11:06:23;;;;;;;5.18;2.80;;;;;;;26.06;38.45;101411.75;4964279;28;20093;-85
2021/06/14 11:09:03;;;;;;;5.82;2.80;;;;;;;26.18;40.84;101409.09;4982385;28;20250;-83
2021/06/14 11:11:31;;;;;;;4.88;2.83;;;;;;;26.30;37.79;101400.91;4988609;28;20038;-85
2021/06/14 11:13:58;;;;;;;3.05;2.45;;;;;;;26.38;38.72;101403.94;4988846;28;20559;-84
2021/06/14 11:16:35;;;;;;;3.60;2.50;;;;;;;26.47;37.54;101396.97;4966358;28;20038;-85
2021/06/14 11:19:08;;;;;;;4.35;2.20;;;;;;;26.12;36.95;101390.59;4976574;28;20327;-84
2021/06/14 11:21:35;;;;;;;25.60;4.55;;;;;;;26.45;38.16;101393.50;4968331;28;20085;-85
2021/06/14 11:24:10;;;;;;;4.35;2.83;;;;;;;26.52;38.69;101397.50;4990706;28;20093;-85
2021/06/14 11:26:38;;;;;;;12.35;3.63;;;;;;;26.52;38.72;101393.91;4974229;28;20042;-84
2021/06/14 11:29:18;;;;;;;4.15;2.70;;;;;;;26.52;37.28;101393.91;4957537;28;20043;-85
2021/06/14 11:32:02;;;;;;;5.55;3.03;;;;;;;26.46;38.53;101380.81;4968942;28;20051;-83
2021/06/14 11:34:42;;;;;;;4.28;2.20;;;;;;;26.18;37.41;101373.88;4961049;28;20081;-85
2021/06/14 11:37:11;;;;;;;3.67;2.42;;;;;;;26.45;37.86;101374.53;4972877;28;20042;-85